CheckWX is a tool to help pilots better visualize weather data.  It is not intended as a substitute for an official pre-flight weather briefing.

06:55:33 UTC

KSYI METAR
Bomar Field-Shelbyville Municipal Airport
Shelbyville, Tennessee, USA
Current

21 mins ago

KSYI 190635Z AUTO 14006KT 10SM CLR 23/19 A3005 RMK A01
Observed
Sep-19 @ 06:35 UTC
Wind
  • 140° at 6 KTS
Visibility
10 SM
Flight Rules
VFR
Cloud Levels
  • Clear skies
Temperature
23°C / 73°F
Dewpoint
19°C / 66°F
Humidity
78%
Altimeter
30.05" Hg
Pressure
1017.62 hPa
Previous

41 mins ago

KSYI 190615Z AUTO 14006KT 10SM CLR 22/19 A3005 RMK A01
Observed
Sep-19 @ 06:15 UTC
Wind
  • 140° at 6 KTS
Visibility
10 SM
Flight Rules
VFR
Cloud Levels
  • Clear skies
Temperature
22°C / 72°F
Dewpoint
19°C / 66°F
Humidity
83%
Altimeter
30.05" Hg
Pressure
1017.62 hPa
Previous

1 hour ago

KSYI 190555Z AUTO 14004KT 10SM CLR 22/19 A3005 RMK A01
Observed
Sep-19 @ 05:55 UTC
Wind
  • 140° at 4 KTS
Visibility
10 SM
Flight Rules
VFR
Cloud Levels
  • Clear skies
Temperature
22°C / 72°F
Dewpoint
19°C / 66°F
Humidity
83%
Altimeter
30.05" Hg
Pressure
1017.62 hPa